Time;durP1;ratioP1;P1;durP2;ratioP2;P2;SDS_P1;SDS_P2;PMS_P1;PMS_P2;Temp;Humidity;BMP_temperature;BMP_pressure;BME280_temperature;BME280_humidity;BME280_pressure;Samples;Min_cycle;Max_cycle;Signal;HPM_P1;HPM_P2
2022/11/02 00:04:04;;;;;;;39.25;17.63;;;;;;;;;;8344788;28;20107;-87
2022/11/02 00:08:09;;;;;;;41.88;18.35;;;;;;;;;;8352679;28;20055;-86
2022/11/02 00:12:12;;;;;;;42.25;18.42;;;;;;;;;;8352493;28;20057;-85
2022/11/02 00:16:18;;;;;;;52.10;20.58;;;;;;;;;;8351846;28;20057;-86
2022/11/02 00:20:25;;;;;;;45.35;17.60;;;;;;;;;;8351948;28;20502;-85
2022/11/02 00:24:29;;;;;;;47.50;18.60;;;;;;;;;;8351570;28;20045;-86
2022/11/02 00:28:31;;;;;;;58.20;21.35;;;;;;;;;;8351657;28;20048;-87
2022/11/02 00:32:37;;;;;;;59.67;22.95;;;;;;;;;;8351562;28;20186;-86
2022/11/02 00:36:41;;;;;;;54.83;22.50;;;;;;;;;;8351537;28;20049;-85
2022/11/02 00:40:44;;;;;;;49.35;19.75;;;;;;;;;;8351528;28;20424;-85
2022/11/02 00:44:46;;;;;;;45.17;18.48;;;;;;;;;;8368984;28;20395;-87
2022/11/02 00:48:49;;;;;;;49.90;19.45;;;;;;;;;;8351626;28;20451;-86
2022/11/02 00:52:55;;;;;;;56.40;21.75;;;;;;;;;;8368086;28;20053;-85
2022/11/02 00:56:58;;;;;;;54.53;21.58;;;;;;;;;;8344437;28;20135;-86
2022/11/02 01:01:05;;;;;;;48.00;19.88;;;;;;;;;;8349926;28;20443;-87
2022/11/02 01:05:11;;;;;;;55.33;20.17;;;;;;;;;;8367956;28;20048;-85
2022/11/02 01:09:17;;;;;;;59.33;21.35;;;;;;;;;;8350278;28;20658;-86
2022/11/02 01:13:22;;;;;;;50.38;20.48;;;;;;;;;;8367633;28;20546;-85
2022/11/02 01:17:27;;;;;;;45.10;22.75;;;;;;;;;;8349503;28;20045;-85
2022/11/02 01:21:30;;;;;;;54.58;23.27;;;;;;;;;;8367421;28;20047;-86
2022/11/02 01:25:34;;;;;;;51.05;21.60;;;;;;;;;;8367270;28;20409;-86
2022/11/02 01:29:39;;;;;;;57.63;23.52;;;;;;;;;;8367381;28;20075;-85
2022/11/02 01:33:45;;;;;;;54.05;22.67;;;;;;;;;;8348533;28;20060;-86
2022/11/02 01:37:48;;;;;;;49.13;22.73;;;;;;;;;;8349633;28;20053;-85
2022/11/02 01:41:55;;;;;;;47.78;22.08;;;;;;;;;;8349465;28;20098;-86
2022/11/02 01:46:01;;;;;;;40.63;20.17;;;;;;;;;;8349416;28;20048;-89
2022/11/02 01:50:09;;;;;;;49.00;20.25;;;;;;;;;;8366968;28;20409;-86
2022/11/02 01:54:16;;;;;;;48.38;22.17;;;;;;;;;;8366775;28;20534;-87
2022/11/02 01:58:22;;;;;;;43.05;22.60;;;;;;;;;;8349176;28;20140;-88
2022/11/02 02:02:27;;;;;;;39.88;19.30;;;;;;;;;;8348601;28;20055;-85
2022/11/02 02:06:30;;;;;;;45.30;20.60;;;;;;;;;;8348963;28;20503;-86
2022/11/02 02:10:35;;;;;;;37.83;18.45;;;;;;;;;;8348884;28;20729;-86
2022/11/02 02:14:41;;;;;;;40.78;20.55;;;;;;;;;;8348465;28;20053;-86
2022/11/02 02:18:49;;;;;;;47.72;23.35;;;;;;;;;;8334897;28;20488;-86
2022/11/02 02:23:22;;;;;;;48.30;23.85;;;;;;;;;;8348001;28;20048;-86
2022/11/02 02:27:34;;;;;;;34.53;18.90;;;;;;;;;;8348679;28;20132;-86
2022/11/02 02:31:44;;;;;;;39.13;21.47;;;;;;;;;;8359503;28;20049;-88
2022/11/02 02:35:55;;;;;;;38.33;20.67;;;;;;;;;;8358606;28;20686;-85
2022/11/02 02:40:03;;;;;;;43.22;21.83;;;;;;;;;;8364972;28;20344;-86
2022/11/02 02:44:10;;;;;;;42.38;21.42;;;;;;;;;;8347916;28;20138;-86
2022/11/02 02:48:18;;;;;;;41.42;20.73;;;;;;;;;;8362025;28;20041;-84
2022/11/02 02:52:25;;;;;;;37.38;16.98;;;;;;;;;;8330429;28;20060;-85
2022/11/02 02:56:32;;;;;;;45.38;20.30;;;;;;;;;;8381720;28;20060;-85
2022/11/02 03:00:36;;;;;;;40.97;18.70;;;;;;;;;;8364616;28;20049;-87
2022/11/02 03:04:40;;;;;;;38.88;20.05;;;;;;;;;;8349681;28;20037;-88
2022/11/02 03:08:48;;;;;;;41.75;19.40;;;;;;;;;;8352756;28;20056;-86
2022/11/02 03:12:58;;;;;;;36.05;19.10;;;;;;;;;;8338815;28;20068;-86
2022/11/02 03:17:15;;;;;;;31.33;16.48;;;;;;;;;;8357451;28;20049;-85
2022/11/02 03:21:27;;;;;;;35.72;17.83;;;;;;;;;;8363102;28;20528;-86
2022/11/02 03:25:35;;;;;;;35.90;17.05;;;;;;;;;;8339846;28;20073;-87
2022/11/02 03:29:44;;;;;;;35.40;18.33;;;;;;;;;;8363454;28;20064;-85
2022/11/02 03:33:56;;;;;;;38.15;18.95;;;;;;;;;;8351377;28;20049;-88
2022/11/02 03:38:04;;;;;;;37.92;17.63;;;;;;;;;;8355382;28;20084;-86
2022/11/02 03:42:14;;;;;;;37.55;17.02;;;;;;;;;;8348472;28;20045;-85
2022/11/02 03:46:17;;;;;;;34.05;17.70;;;;;;;;;;8362993;28;20051;-89
2022/11/02 03:50:23;;;;;;;33.20;17.08;;;;;;;;;;8362775;28;20546;-86
2022/11/02 03:54:36;;;;;;;29.50;16.02;;;;;;;;;;8363472;28;20114;-85
2022/11/02 03:58:39;;;;;;;34.17;17.70;;;;;;;;;;8358836;28;20049;-88
2022/11/02 04:02:47;;;;;;;32.05;16.40;;;;;;;;;;8345113;28;20049;-85
2022/11/02 04:06:53;;;;;;;30.80;15.70;;;;;;;;;;8333533;28;20063;-86
2022/11/02 04:15:17;;;;;;;27.17;14.95;;;;;;;;;;8328544;28;20053;-85
2022/11/02 04:19:28;;;;;;;32.60;15.77;;;;;;;;;;8329256;28;20064;-85
2022/11/02 04:27:54;;;;;;;32.70;15.70;;;;;;;;;;8321062;28;20053;-88
2022/11/02 04:31:57;;;;;;;28.98;14.98;;;;;;;;;;8322492;28;20045;-86
2022/11/02 04:36:01;;;;;;;31.23;15.63;;;;;;;;;;8321719;28;20382;-85
2022/11/02 04:40:06;;;;;;;30.38;16.55;;;;;;;;;;8322474;28;20050;-85
2022/11/02 04:44:14;;;;;;;33.03;16.13;;;;;;;;;;8330528;28;20086;-87
2022/11/02 04:48:17;;;;;;;29.00;15.68;;;;;;;;;;8334126;28;20081;-85
2022/11/02 04:52:20;;;;;;;34.30;17.10;;;;;;;;;;8331116;28;20064;-85
2022/11/02 04:56:24;;;;;;;33.95;16.10;;;;;;;;;;8333719;28;20061;-84
2022/11/02 05:00:30;;;;;;;36.15;17.42;;;;;;;;;;8332136;28;20513;-87
2022/11/02 05:04:34;;;;;;;34.95;16.13;;;;;;;;;;8332989;28;20069;-87
2022/11/02 05:08:39;;;;;;;31.77;16.13;;;;;;;;;;8332923;28;20053;-88
2022/11/02 05:12:42;;;;;;;36.30;16.02;;;;;;;;;;8333429;28;20100;-86
2022/11/02 05:16:48;;;;;;;36.83;18.77;;;;;;;;;;8349089;28;20132;-85
2022/11/02 05:20:55;;;;;;;35.92;17.05;;;;;;;;;;8343876;28;20053;-90
2022/11/02 05:24:57;;;;;;;33.40;16.05;;;;;;;;;;8332848;28;20091;-85
2022/11/02 05:29:00;;;;;;;42.85;19.48;;;;;;;;;;8356146;28;20041;-85
2022/11/02 05:33:06;;;;;;;35.15;18.25;;;;;;;;;;8343758;28;20576;-89
2022/11/02 05:37:10;;;;;;;35.35;18.02;;;;;;;;;;8348395;28;20049;-86
2022/11/02 05:41:13;;;;;;;37.97;19.52;;;;;;;;;;8348694;28;20052;-88
2022/11/02 05:45:16;;;;;;;39.17;20.42;;;;;;;;;;8366308;28;20140;-85
2022/11/02 05:49:22;;;;;;;36.13;17.98;;;;;;;;;;8341424;28;20056;-88
2022/11/02 05:53:30;;;;;;;41.47;20.48;;;;;;;;;;8348343;28;20057;-88
2022/11/02 05:57:35;;;;;;;43.47;20.25;;;;;;;;;;8344460;28;20131;-89
2022/11/02 06:01:40;;;;;;;49.17;19.20;;;;;;;;;;8356853;28;20041;-89
2022/11/02 06:05:45;;;;;;;41.38;20.70;;;;;;;;;;8360919;28;20056;-86
2022/11/02 06:09:51;;;;;;;42.92;19.15;;;;;;;;;;8337025;28;20076;-86
2022/11/02 06:13:53;;;;;;;45.45;20.70;;;;;;;;;;8342937;28;21066;-86
2022/11/02 06:17:56;;;;;;;44.72;19.45;;;;;;;;;;8334218;28;20507;-90
2022/11/02 06:22:02;;;;;;;45.75;20.20;;;;;;;;;;8326275;28;20045;-87
2022/11/02 06:26:09;;;;;;;53.00;21.95;;;;;;;;;;8358019;28;20045;-87
2022/11/02 06:30:12;;;;;;;45.25;19.85;;;;;;;;;;8346355;28;20056;-91
2022/11/02 06:34:15;;;;;;;49.63;20.35;;;;;;;;;;8341845;28;20127;-88
2022/11/02 06:38:19;;;;;;;55.17;22.92;;;;;;;;;;8340671;28;20485;-89
2022/11/02 06:42:22;;;;;;;60.08;23.52;;;;;;;;;;8357193;28;20048;-86
2022/11/02 06:46:27;;;;;;;50.95;22.83;;;;;;;;;;8362926;28;20052;-89
2022/11/02 06:50:32;;;;;;;45.70;21.75;;;;;;;;;;8346476;28;20420;-88
2022/11/02 06:54:41;;;;;;;46.60;22.77;;;;;;;;;;8343079;28;20095;-87
2022/11/02 06:58:44;;;;;;;43.92;22.40;;;;;;;;;;8345214;28;20524;-89
2022/11/02 07:02:59;;;;;;;40.00;19.52;;;;;;;;;;8344194;28;20060;-88
2022/11/02 07:07:02;;;;;;;43.85;20.63;;;;;;;;;;8359204;28;20044;-85
2022/11/02 07:11:06;;;;;;;42.65;20.92;;;;;;;;;;8359997;28;20057;-87
2022/11/02 07:15:09;;;;;;;43.47;19.08;;;;;;;;;;8350357;28;20049;-88
2022/11/02 07:19:12;;;;;;;40.08;19.05;;;;;;;;;;8356529;28;20073;-87
2022/11/02 07:23:15;;;;;;;35.42;19.00;;;;;;;;;;8362322;28;20049;-90
2022/11/02 07:27:19;;;;;;;36.72;18.85;;;;;;;;;;8348554;28;20049;-87
2022/11/02 07:31:22;;;;;;;37.17;19.38;;;;;;;;;;8356382;28;20481;-88
2022/11/02 07:35:25;;;;;;;38.45;19.40;;;;;;;;;;8356669;28;20128;-87
2022/11/02 07:39:28;;;;;;;37.97;17.48;;;;;;;;;;8358292;28;20045;-87
2022/11/02 07:43:32;;;;;;;30.05;17.48;;;;;;;;;;8355454;28;20041;-87
2022/11/02 07:47:44;;;;;;;36.13;17.27;;;;;;;;;;8330842;28;20045;-88
2022/11/02 07:51:47;;;;;;;;;;;;;;;;;;8356171;28;20048;-89
2022/11/02 07:55:50;;;;;;;33.22;18.10;;;;;;;;;;8334355;28;19978;-87
2022/11/02 07:59:55;;;;;;;31.10;17.92;;;;;;;;;;8362271;28;20045;-87
2022/11/02 08:03:59;;;;;;;32.85;16.42;;;;;;;;;;8336380;28;20083;-87
2022/11/02 08:08:04;;;;;;;35.97;17.92;;;;;;;;;;8338989;28;20068;-86
2022/11/02 08:12:07;;;;;;;33.80;18.73;;;;;;;;;;8339758;28;20056;-87
2022/11/02 08:16:11;;;;;;;30.20;16.45;;;;;;;;;;8341810;28;20057;-90
2022/11/02 08:20:31;;;;;;;;;;;;;;;;;;8319608;28;20509;-87
2022/11/02 08:24:34;;;;;;;34.17;16.67;;;;;;;;;;8317500;28;20016;-86
2022/11/02 08:28:39;;;;;;;29.92;16.48;;;;;;;;;;8303704;28;20038;-87
2022/11/02 08:32:42;;;;;;;31.25;16.42;;;;;;;;;;8325639;28;20037;-87
2022/11/02 08:36:45;;;;;;;30.63;17.38;;;;;;;;;;8326356;28;20052;-87
2022/11/02 08:40:48;;;;;;;29.40;16.83;;;;;;;;;;8310289;28;20046;-87
2022/11/02 08:44:54;;;;;;;30.10;16.20;;;;;;;;;;8344025;28;20036;-87
2022/11/02 08:48:57;;;;;;;35.05;15.68;;;;;;;;;;8337738;28;20091;-86
2022/11/02 08:53:00;;;;;;;34.20;17.13;;;;;;;;;;8333768;28;20041;-88
2022/11/02 08:57:03;;;;;;;35.28;15.48;;;;;;;;;;8323721;28;20110;-89
2022/11/02 09:01:11;;;;;;;27.90;14.15;;;;;;;;;;8327590;28;20057;-91
2022/11/02 09:05:21;;;;;;;27.15;13.95;;;;;;;;;;8309136;28;20057;-86
2022/11/02 09:09:32;;;;;;;31.80;14.80;;;;;;;;;;8317341;28;20501;-87
2022/11/02 09:13:40;;;;;;;26.95;15.30;;;;;;;;;;8323404;28;20050;-88
2022/11/02 09:17:48;;;;;;;29.10;15.00;;;;;;;;;;8298121;28;20518;-88
2022/11/02 09:21:55;;;;;;;24.02;13.57;;;;;;;;;;8302652;28;20549;-89
2022/11/02 09:26:01;;;;;;;26.45;13.90;;;;;;;;;;8289941;28;20056;-87
2022/11/02 09:30:06;;;;;;;28.77;14.98;;;;;;;;;;8300758;28;20092;-88
2022/11/02 09:34:11;;;;;;;28.65;14.32;;;;;;;;;;8309781;28;20589;-86
2022/11/02 09:38:23;;;;;;;26.17;14.35;;;;;;;;;;8320511;28;20045;-87
2022/11/02 09:42:42;;;;;;;26.83;15.85;;;;;;;;;;8328766;28;20045;-88
2022/11/02 09:46:58;;;;;;;29.60;15.00;;;;;;;;;;8314882;28;20057;-87
2022/11/02 09:51:11;;;;;;;31.33;14.30;;;;;;;;;;8299994;28;20613;-87
2022/11/02 09:55:22;;;;;;;25.50;14.38;;;;;;;;;;8297845;28;20069;-88
2022/11/02 09:59:28;;;;;;;25.67;14.32;;;;;;;;;;8298147;28;20041;-88
2022/11/02 10:03:42;;;;;;;29.13;13.95;;;;;;;;;;8307468;28;20041;-87
2022/11/02 10:08:07;;;;;;;29.42;15.52;;;;;;;;;;8317842;28;20041;-88
2022/11/02 10:12:14;;;;;;;23.85;12.70;;;;;;;;;;8328056;28;20041;-87
2022/11/02 10:16:21;;;;;;;22.23;12.18;;;;;;;;;;8354409;28;20064;-86
2022/11/02 10:20:27;;;;;;;19.15;11.90;;;;;;;;;;8365531;28;20080;-87
2022/11/02 10:24:35;;;;;;;21.67;11.68;;;;;;;;;;8365561;28;20049;-87
2022/11/02 10:28:42;;;;;;;21.58;12.00;;;;;;;;;;8336162;28;20037;-88
2022/11/02 10:32:50;;;;;;;22.13;12.13;;;;;;;;;;8328654;28;20041;-87
2022/11/02 10:37:05;;;;;;;24.70;11.90;;;;;;;;;;8322801;28;20505;-87
2022/11/02 10:41:24;;;;;;;19.75;11.45;;;;;;;;;;8348271;28;20132;-90
2022/11/02 10:46:02;;;;;;;19.95;12.07;;;;;;;;;;8335460;28;20045;-89
2022/11/02 10:50:28;;;;;;;22.98;12.10;;;;;;;;;;8343315;28;20044;-86
2022/11/02 10:54:31;;;;;;;18.95;11.30;;;;;;;;;;8331053;28;20065;-87
2022/11/02 10:58:39;;;;;;;25.23;12.05;;;;;;;;;;8349084;28;20053;-90
2022/11/02 11:02:43;;;;;;;20.15;11.27;;;;;;;;;;8363731;28;20060;-87
2022/11/02 11:06:47;;;;;;;21.67;11.23;;;;;;;;;;8349564;28;20515;-85
2022/11/02 11:10:49;;;;;;;16.13;9.57;;;;;;;;;;8363896;28;20045;-87
2022/11/02 11:14:55;;;;;;;20.65;10.80;;;;;;;;;;8363868;28;20524;-86
2022/11/02 11:18:59;;;;;;;17.08;10.68;;;;;;;;;;8350222;28;20120;-85
2022/11/02 11:23:20;;;;;;;21.10;10.43;;;;;;;;;;8363948;28;20488;-89
2022/11/02 11:27:23;;;;;;;18.85;9.82;;;;;;;;;;8337526;28;20064;-88
2022/11/02 11:31:27;;;;;;;13.57;8.90;;;;;;;;;;8309516;28;20056;-87
2022/11/02 11:35:33;;;;;;;15.40;7.80;;;;;;;;;;8352020;28;20492;-88
2022/11/02 11:39:37;;;;;;;17.83;8.23;;;;;;;;;;8362271;28;20045;-87
2022/11/02 11:43:40;;;;;;;15.93;8.85;;;;;;;;;;8346129;28;20401;-86
2022/11/02 11:47:43;;;;;;;15.38;8.68;;;;;;;;;;8362977;28;20090;-87
2022/11/02 11:51:50;;;;;;;15.55;8.57;;;;;;;;;;8355016;28;20480;-86
2022/11/02 11:55:57;;;;;;;13.57;7.97;;;;;;;;;;8363924;28;20461;-86
2022/11/02 12:00:03;;;;;;;17.67;8.10;;;;;;;;;;8346036;28;20076;-86
2022/11/02 12:04:08;;;;;;;12.68;7.20;;;;;;;;;;8342628;28;20473;-87
2022/11/02 12:08:27;;;;;;;14.40;7.57;;;;;;;;;;8319184;28;20047;-88
2022/11/02 12:12:43;;;;;;;12.02;7.13;;;;;;;;;;8327635;28;20053;-86
2022/11/02 12:17:19;;;;;;;14.90;7.95;;;;;;;;;;8342889;28;20056;-86
2022/11/02 12:21:36;;;;;;;9.55;6.68;;;;;;;;;;8343929;28;20057;-86
2022/11/02 12:25:50;;;;;;;16.40;7.95;;;;;;;;;;8361651;28;20206;-88
2022/11/02 12:30:13;;;;;;;16.35;7.00;;;;;;;;;;8344578;28;20053;-86
2022/11/02 12:34:41;;;;;;;12.90;5.90;;;;;;;;;;8344520;28;20107;-89
2022/11/02 12:39:02;;;;;;;12.60;5.82;;;;;;;;;;8383008;28;20052;-85
2022/11/02 12:43:23;;;;;;;12.45;5.82;;;;;;;;;;8388649;28;20049;-86
2022/11/02 12:47:39;;;;;;;11.07;5.43;;;;;;;;;;8397632;28;20102;-86
2022/11/02 12:51:51;;;;;;;13.52;5.85;;;;;;;;;;8397971;28;20052;-88
2022/11/02 12:55:58;;;;;;;11.00;6.75;;;;;;;;;;8379619;28;20121;-86
2022/11/02 13:00:07;;;;;;;10.77;5.95;;;;;;;;;;8365125;28;20045;-86
2022/11/02 13:04:15;;;;;;;16.85;8.05;;;;;;;;;;8346302;28;20060;-86
2022/11/02 13:08:21;;;;;;;12.05;6.97;;;;;;;;;;8367916;28;20463;-86
2022/11/02 13:42:32;;;;;;;12.00;5.97;;;;;;;;;;9799510;23;20064;-86
2022/11/02 13:46:54;;;;;;;12.07;5.88;;;;;;;;;;8364060;28;20404;-86
2022/11/02 13:50:58;;;;;;;;;;;;;;;;;;8339568;28;20099;-86
2022/11/02 13:55:05;;;;;;;11.98;6.13;;;;;;;;;;8345734;28;19924;-87
2022/11/02 13:59:18;;;;;;;11.77;6.03;;;;;;;;;;8358875;28;20056;-90
2022/11/02 14:03:25;;;;;;;11.13;6.35;;;;;;;;;;8341024;28;20063;-88
2022/11/02 14:07:32;;;;;;;10.45;5.78;;;;;;;;;;8331444;28;20103;-87
2022/11/02 14:11:46;;;;;;;7.47;4.60;;;;;;;;;;8340682;28;20048;-88
2022/11/02 14:15:54;;;;;;;9.68;4.70;;;;;;;;;;10108263;22;20012;-88
2022/11/02 14:20:03;;;;;;;10.02;5.47;;;;;;;;;;8361814;28;20421;-88
2022/11/02 14:24:39;;;;;;;12.82;5.68;;;;;;;;;;8330268;28;20059;-89
2022/11/02 14:28:46;;;;;;;10.50;5.90;;;;;;;;;;8365116;28;20045;-90
2022/11/02 14:33:00;;;;;;;12.18;5.70;;;;;;;;;;8356154;28;20049;-91
2022/11/02 14:37:22;;;;;;;12.55;5.70;;;;;;;;;;8354936;28;20088;-90
2022/11/02 14:41:44;;;;;;;9.98;5.03;;;;;;;;;;8340148;28;20056;-87
2022/11/02 14:46:06;;;;;;;11.45;5.05;;;;;;;;;;8341675;28;20164;-89
2022/11/02 14:50:17;;;;;;;10.38;6.15;;;;;;;;;;9065396;23;20054;-87
2022/11/02 14:54:21;;;;;;;14.35;6.85;;;;;;;;;;8330859;28;20056;-88
2022/11/02 14:58:30;;;;;;;10.25;5.85;;;;;;;;;;8342397;28;20123;-87
2022/11/02 15:02:36;;;;;;;12.80;6.78;;;;;;;;;;8306415;28;20049;-89
2022/11/02 15:06:52;;;;;;;10.90;5.95;;;;;;;;;;8344576;28;20120;-88
2022/11/02 15:10:55;;;;;;;11.98;5.68;;;;;;;;;;8329130;28;20045;-87
2022/11/02 15:15:39;;;;;;;11.45;6.45;;;;;;;;;;8308460;28;20049;-87
2022/11/02 15:19:45;;;;;;;14.30;6.80;;;;;;;;;;8326167;28;20037;-90
2022/11/02 15:23:55;;;;;;;12.43;6.68;;;;;;;;;;8343350;28;20373;-85
2022/11/02 15:28:05;;;;;;;22.23;12.70;;;;;;;;;;8322548;28;20477;-86
2022/11/02 15:32:14;;;;;;;20.63;10.63;;;;;;;;;;8351125;28;20044;-85
2022/11/02 15:36:23;;;;;;;17.95;9.23;;;;;;;;;;8353831;28;20393;-89
2022/11/02 15:45:10;;;;;;;17.25;8.18;;;;;;;;;;9884407;22;20127;-87
2022/11/02 16:14:19;;;;;;;14.70;7.43;;;;;;;;;;10078015;23;20078;-86
2022/11/02 17:13:54;;;;;;;38.20;17.00;;;;;;;;;;9533422;22;20563;-89
2022/11/02 17:18:35;;;;;;;43.28;19.65;;;;;;;;;;8345486;28;20501;-86
2022/11/02 17:37:55;;;;;;;71.80;32.38;;;;;;;;;;8501615;23;20047;-86
2022/11/02 17:51:59;;;;;;;98.28;42.20;;;;;;;;;;8590121;23;20248;-86
2022/11/02 18:00:19;;;;;;;119.47;51.45;;;;;;;;;;9013142;23;20111;-84
2022/11/02 18:04:27;;;;;;;80.50;39.50;;;;;;;;;;8168213;29;20450;-86
2022/11/02 18:09:09;;;;;;;72.95;34.83;;;;;;;;;;8134228;29;20159;-85
2022/11/02 18:14:21;;;;;;;95.65;44.13;;;;;;;;;;8152658;29;20578;-86
2022/11/02 18:18:33;;;;;;;54.47;23.38;;;;;;;;;;8168894;29;20488;-87
2022/11/02 18:26:50;;;;;;;110.57;45.83;;;;;;;;;;8157757;29;20159;-89
2022/11/02 18:31:15;;;;;;;101.10;44.15;;;;;;;;;;8140025;29;20527;-86
2022/11/02 18:39:44;;;;;;;144.07;57.55;;;;;;;;;;8141891;29;20054;-88
2022/11/02 18:43:59;;;;;;;141.45;58.47;;;;;;;;;;8138611;29;20067;-87
2022/11/02 18:48:03;;;;;;;75.90;39.28;;;;;;;;;;8118049;29;20598;-90
2022/11/02 18:52:07;;;;;;;76.13;37.42;;;;;;;;;;8140874;29;20060;-89
2022/11/02 19:17:03;;;;;;;86.38;33.85;;;;;;;;;;8176770;23;20048;-86
2022/11/02 19:21:08;;;;;;;116.88;48.15;;;;;;;;;;8137934;29;20068;-88
2022/11/02 19:25:11;;;;;;;183.98;67.18;;;;;;;;;;8137554;29;20488;-86
2022/11/02 19:29:15;;;;;;;33.65;17.58;;;;;;;;;;8145634;29;20150;-86
2022/11/02 19:33:19;;;;;;;49.92;20.50;;;;;;;;;;8134307;29;20076;-86
2022/11/02 19:37:22;;;;;;;71.88;28.35;;;;;;;;;;8137829;29;20149;-87
2022/11/02 19:41:26;;;;;;;47.03;22.08;;;;;;;;;;8137652;29;20460;-87
2022/11/02 19:45:29;;;;;;;46.83;20.20;;;;;;;;;;8128071;29;20071;-89
2022/11/02 19:49:34;;;;;;;44.33;17.83;;;;;;;;;;8139191;29;20442;-88
2022/11/02 19:53:39;;;;;;;39.53;17.67;;;;;;;;;;8137136;29;20468;-90
2022/11/02 20:03:18;;;;;;;32.77;18.30;;;;;;;;;;8137275;29;20175;-87
2022/11/02 20:07:25;;;;;;;36.05;17.20;;;;;;;;;;8137300;29;20552;-88
2022/11/02 20:11:29;;;;;;;30.25;16.02;;;;;;;;;;8137391;29;20048;-89
2022/11/02 20:15:34;;;;;;;32.72;15.60;;;;;;;;;;8139557;29;20104;-90
2022/11/02 20:19:37;;;;;;;29.83;12.98;;;;;;;;;;8134532;29;20056;-86
2022/11/02 20:23:45;;;;;;;28.23;13.25;;;;;;;;;;8115148;29;20048;-86
2022/11/02 20:27:48;;;;;;;30.92;13.55;;;;;;;;;;8126705;29;20066;-86
2022/11/02 20:31:52;;;;;;;29.92;12.90;;;;;;;;;;8134255;29;20470;-88
2022/11/02 20:35:54;;;;;;;31.30;13.95;;;;;;;;;;8149114;29;20180;-89
2022/11/02 20:40:02;;;;;;;33.30;13.60;;;;;;;;;;8150556;29;20156;-85
2022/11/02 20:44:07;;;;;;;28.05;11.85;;;;;;;;;;8148184;29;20063;-86
2022/11/02 20:48:11;;;;;;;27.58;12.68;;;;;;;;;;8143847;29;20765;-87
2022/11/02 20:52:17;;;;;;;26.95;12.07;;;;;;;;;;8117868;29;20060;-86
2022/11/02 20:56:24;;;;;;;33.25;14.38;;;;;;;;;;8124896;29;20079;-86
2022/11/02 21:00:27;;;;;;;23.98;13.15;;;;;;;;;;8113582;29;20477;-86
2022/11/02 21:04:32;;;;;;;50.10;19.80;;;;;;;;;;8142131;29;20530;-85
2022/11/02 21:08:36;;;;;;;89.20;30.15;;;;;;;;;;8125948;29;20060;-85
2022/11/02 21:17:02;;;;;;;40.05;16.48;;;;;;;;;;8109462;29;20501;-85
2022/11/02 21:21:06;;;;;;;27.80;12.35;;;;;;;;;;8110320;29;20072;-85
2022/11/02 21:25:10;;;;;;;27.00;12.48;;;;;;;;;;8109122;29;20516;-86
2022/11/02 21:29:15;;;;;;;27.17;13.20;;;;;;;;;;8096675;29;20075;-87
2022/11/02 21:33:18;;;;;;;30.63;12.38;;;;;;;;;;8109835;29;20151;-86
2022/11/02 21:37:21;;;;;;;39.78;13.35;;;;;;;;;;8110157;29;20060;-85
2022/11/02 21:41:26;;;;;;;33.95;15.25;;;;;;;;;;8109317;29;20057;-85
2022/11/02 21:45:31;;;;;;;37.92;14.25;;;;;;;;;;8096737;29;20497;-86
2022/11/02 21:49:34;;;;;;;35.47;13.35;;;;;;;;;;8109786;29;20049;-85
2022/11/02 21:53:39;;;;;;;40.50;14.80;;;;;;;;;;8081160;29;20061;-85
2022/11/02 21:57:41;;;;;;;50.65;20.75;;;;;;;;;;8101594;29;20135;-85
2022/11/02 22:01:48;;;;;;;42.63;17.92;;;;;;;;;;8108341;29;20063;-84
2022/11/02 22:05:58;;;;;;;50.92;22.27;;;;;;;;;;8096279;29;20076;-85
2022/11/02 22:10:01;;;;;;;30.75;15.82;;;;;;;;;;8109114;29;20051;-87
2022/11/02 22:14:03;;;;;;;36.50;14.40;;;;;;;;;;8110675;29;20127;-86
2022/11/02 22:18:10;;;;;;;44.45;19.85;;;;;;;;;;8124205;29;20514;-87
2022/11/02 22:22:12;;;;;;;79.55;33.03;;;;;;;;;;8123623;29;20126;-84
2022/11/02 22:26:20;;;;;;;46.88;17.20;;;;;;;;;;8139931;29;20056;-84
2022/11/02 22:30:24;;;;;;;146.15;50.78;;;;;;;;;;8139099;29;20067;-85
2022/11/02 22:34:31;;;;;;;53.75;25.13;;;;;;;;;;8123182;29;20111;-84
2022/11/02 22:38:50;;;;;;;46.03;19.05;;;;;;;;;;8121870;29;20088;-85
2022/11/02 22:42:54;;;;;;;41.28;15.95;;;;;;;;;;8152750;29;20063;-84
2022/11/02 22:46:57;;;;;;;39.63;17.80;;;;;;;;;;8138819;29;20129;-85
2022/11/02 22:51:04;;;;;;;61.97;25.38;;;;;;;;;;8122968;29;20573;-84
2022/11/02 22:55:09;;;;;;;41.35;17.83;;;;;;;;;;8139002;29;20501;-86
2022/11/02 22:59:12;;;;;;;32.65;14.43;;;;;;;;;;8127137;29;20052;-84
2022/11/02 23:03:15;;;;;;;81.90;16.55;;;;;;;;;;8166167;29;20083;-84
2022/11/02 23:07:19;;;;;;;44.72;17.05;;;;;;;;;;8155850;29;20056;-85
2022/11/02 23:11:24;;;;;;;53.60;16.15;;;;;;;;;;8152095;29;20052;-85
2022/11/02 23:15:30;;;;;;;35.53;13.18;;;;;;;;;;8156110;29;20437;-85
2022/11/02 23:19:34;;;;;;;29.17;12.73;;;;;;;;;;8142115;29;20120;-84
2022/11/02 23:32:27;;;;;;;37.60;14.38;;;;;;;;;;8133996;29;20064;-84
2022/11/02 23:36:29;;;;;;;41.30;14.13;;;;;;;;;;8139108;29;20480;-87
2022/11/02 23:40:36;;;;;;;30.80;12.43;;;;;;;;;;8120338;29;20159;-85
2022/11/02 23:44:38;;;;;;;37.50;12.52;;;;;;;;;;8138883;29;20537;-85
2022/11/02 23:48:42;;;;;;;37.90;13.40;;;;;;;;;;8148821;29;20063;-84
2022/11/02 23:57:12;;;;;;;53.30;16.85;;;;;;;;;;8125169;29;20465;-87
